If you wish to contribute or participate in the discussions about articles you are invited to join SKYbrary as a registered user

 Actions

Avalon Airport

From SKYbrary Wiki

YMAV
Airport
ICAO: YMAV – IATA: AVV
Summary
Name Avalon Airport
Region Asia and Pacific
Territory Australia AU.gif
Location , Victoria
Serving Avalon
Elevation 10.668 m
35 ft
35 ft10.668 m
Type medium airport
Coordinates 38° 2' 21.98" S, 144° 28' 9.98" E
Runways
Designator Length Width Surface ROPS
18/36 3048 m10,000 ft
45 m147.638 ft
ASP yes/yes


METAR
Observation YMAV 231700Z AUTO 00000KT 9999 // BKN120 17/14 Q1010
Station Avalon, Avalon Airport
Date/Time 23 March 2019 17:00:00
Wind direction
Wind speed 00 kts
Lowest cloud amount broken clouds
Temperature 17°C
Dew point 14°C
Humidity 82%
QNH 1010 hPa
Weather condition n/a